Ellicott City, MD (21042)

8:05 PM EDT on May 27, 2015 (GMT -0400)
Mt. Hebron | | Change Station
CLOSE
Current Station
Personal Weather Station
Location: Ellicott City, MD
Elevation: 466 ft
Nearby Weather Stations

Elev 466 ft 39.30 °N, 76.84 °W | Updated 4 minutes ago

Partly Cloudy
Partly Cloudy
72.0 °F
Feels Like 72.0 °F
N
0.0
Wind Variable Wind from NNE
Gusts 0.0 mph

Today
High -- | Low -- °F
--% Chance of Precip.
Yesterday
High -- | Low -- °F
Precip. -- in
5:45 AM 8:24 PM
Waxing Gibbous, 71% visible
Pressure 30.11 in
Visibility 10.0 miles
Clouds Scattered Clouds 5500 ft
Scattered Clouds 7500 ft
Scattered Clouds 9000 ft
Mostly Cloudy 25000 ft
Dew Point 70 °F
Humidity 93%
Rainfall 0.15 in
Snow Depth Not available.
UV 0 out of 12
Pollen 4.80 out of 12
Air Quality Not available.
Flu Activity Sporadic
METAR KBWI 272354Z COR 00000KT 10SM SCT055 SCT075 SCT090 BKN250 25/19 A3011 RMK AO2 CB DSNT E-SE MOV NE SLP194 60000 T02500194 10311 20222 56004

More Conditions Fewer Conditions

Pressure 30.11 in
Visibility 10.0 miles
Clouds Scattered Clouds 5500 ft
Scattered Clouds 7500 ft
Scattered Clouds 9000 ft
Mostly Cloudy 25000 ft
Dew Point 70 °F
Humidity 93%
Rainfall 0.15 in
Snow Depth Not available.
UV 0 out of 12
Pollen 4.80 out of 12
Air Quality Not available.
Flu Activity Sporadic
METAR KBWI 272354Z COR 00000KT 10SM SCT055 SCT075 SCT090 BKN250 25/19 A3011 RMK AO2 CB DSNT E-SE MOV NE SLP194 60000 T02500194 10311 20222 56004

More Conditions Fewer Conditions

10-Day Weather Forecast

Almanac

Astronomy

May. 27, 2015 Rise Set
Actual Time
Civil Twilight
Nautical Twilight
Astronomical Twilight
Moon
Length of Visible Light
Length of Day
Tomorrow will be .
, % of the Moon is Illuminated

Today's Extremes

State Highs State Lows

Community

WunderPhotos

Upload Photos

1,824,825 photos uploaded!

WunderBlogs® & News

Nearby

Air Quality

  Air Quality AQ Index Pollutant
Not available.

Snow Depth

Station Depth Elevation

Earthquake Activity

City Distance Mag. Time & Date
Minimum magnitude displayed is 2.5.

Coastal Water Temperatures

Place Temperature

Stations

Nearby Weather Stations

Station Location Temp. Windchill Dew Point Humidity Wind Precip. Elev Updated Type